sensor_id;sensor_type;location;lat;lon;timestamp;temperature;humidity
758;DHT22;363;48.764;9.172;2024-01-25T00:01:29;11.30;99.90
758;DHT22;363;48.764;9.172;2024-01-25T00:03:54;11.20;99.90
758;DHT22;363;48.764;9.172;2024-01-25T00:06:20;11.50;99.90
758;DHT22;363;48.764;9.172;2024-01-25T00:08:46;12.80;99.90
758;DHT22;363;48.764;9.172;2024-01-25T00:11:12;11.40;99.90
758;DHT22;363;48.764;9.172;2024-01-25T00:13:38;11.40;99.90
758;DHT22;363;48.764;9.172;2024-01-25T00:16:04;11.90;99.90
758;DHT22;363;48.764;9.172;2024-01-25T00:18:30;11.70;99.90
758;DHT22;363;48.764;9.172;2024-01-25T00:20:56;11.90;99.90
758;DHT22;363;48.764;9.172;2024-01-25T00:23:21;11.50;99.90
758;DHT22;363;48.764;9.172;2024-01-25T00:25:47;11.60;99.90
758;DHT22;363;48.764;9.172;2024-01-25T00:28:12;11.40;99.90
758;DHT22;363;48.764;9.172;2024-01-25T00:30:39;11.90;99.90
758;DHT22;363;48.764;9.172;2024-01-25T00:33:04;11.60;99.90
758;DHT22;363;48.764;9.172;2024-01-25T00:35:30;11.60;99.90
758;DHT22;363;48.764;9.172;2024-01-25T00:37:56;11.90;99.90
758;DHT22;363;48.764;9.172;2024-01-25T00:40:22;11.60;99.90
758;DHT22;363;48.764;9.172;2024-01-25T00:42:48;11.60;99.90
758;DHT22;363;48.764;9.172;2024-01-25T00:45:18;11.60;99.90
758;DHT22;363;48.764;9.172;2024-01-25T00:47:44;11.50;99.90
758;DHT22;363;48.764;9.172;2024-01-25T00:50:10;11.60;99.90
758;DHT22;363;48.764;9.172;2024-01-25T00:52:36;11.60;99.90
758;DHT22;363;48.764;9.172;2024-01-25T00:55:02;11.70;99.90
758;DHT22;363;48.764;9.172;2024-01-25T00:57:28;11.80;99.90
758;DHT22;363;48.764;9.172;2024-01-25T00:59:54;11.60;99.90
758;DHT22;363;48.764;9.172;2024-01-25T01:02:21;11.50;99.90
758;DHT22;363;48.764;9.172;2024-01-25T01:04:48;11.50;99.90
758;DHT22;363;48.764;9.172;2024-01-25T01:07:14;11.60;99.90
758;DHT22;363;48.764;9.172;2024-01-25T01:09:39;11.50;99.90
758;DHT22;363;48.764;9.172;2024-01-25T01:12:06;11.60;99.90
758;DHT22;363;48.764;9.172;2024-01-25T01:14:32;12.00;99.90
758;DHT22;363;48.764;9.172;2024-01-25T01:16:57;11.90;99.90
758;DHT22;363;48.764;9.172;2024-01-25T01:19:23;11.70;99.90
758;DHT22;363;48.764;9.172;2024-01-25T01:21:48;12.00;99.90
758;DHT22;363;48.764;9.172;2024-01-25T01:24:14;11.60;99.90
758;DHT22;363;48.764;9.172;2024-01-25T01:26:39;12.10;99.90
758;DHT22;363;48.764;9.172;2024-01-25T01:29:07;11.40;99.90
758;DHT22;363;48.764;9.172;2024-01-25T01:31:33;12.00;99.90
758;DHT22;363;48.764;9.172;2024-01-25T01:33:59;11.70;99.90
758;DHT22;363;48.764;9.172;2024-01-25T01:36:24;11.60;99.90
758;DHT22;363;48.764;9.172;2024-01-25T01:38:50;11.90;99.90
758;DHT22;363;48.764;9.172;2024-01-25T01:41:15;11.90;99.90
758;DHT22;363;48.764;9.172;2024-01-25T01:43:41;11.50;99.90
758;DHT22;363;48.764;9.172;2024-01-25T01:46:10;11.60;99.90
758;DHT22;363;48.764;9.172;2024-01-25T01:48:39;11.40;99.90
758;DHT22;363;48.764;9.172;2024-01-25T01:51:05;11.70;99.90
758;DHT22;363;48.764;9.172;2024-01-25T01:53:32;11.60;99.90
758;DHT22;363;48.764;9.172;2024-01-25T01:55:58;11.60;99.90
758;DHT22;363;48.764;9.172;2024-01-25T01:58:25;11.50;99.90
758;DHT22;363;48.764;9.172;2024-01-25T02:00:53;11.30;99.90
758;DHT22;363;48.764;9.172;2024-01-25T02:03:19;11.50;99.90
758;DHT22;363;48.764;9.172;2024-01-25T02:05:45;11.50;99.90
758;DHT22;363;48.764;9.172;2024-01-25T02:08:10;11.20;99.90
758;DHT22;363;48.764;9.172;2024-01-25T02:10:36;11.60;99.90
758;DHT22;363;48.764;9.172;2024-01-25T02:13:01;11.40;99.90
758;DHT22;363;48.764;9.172;2024-01-25T02:15:27;11.50;99.90
758;DHT22;363;48.764;9.172;2024-01-25T02:17:52;11.70;99.90
758;DHT22;363;48.764;9.172;2024-01-25T02:20:18;11.90;99.90
758;DHT22;363;48.764;9.172;2024-01-25T02:22:44;11.40;99.90
758;DHT22;363;48.764;9.172;2024-01-25T02:25:09;11.90;99.90
758;DHT22;363;48.764;9.172;2024-01-25T02:27:35;11.80;99.90
758;DHT22;363;48.764;9.172;2024-01-25T02:30:07;11.40;99.90
758;DHT22;363;48.764;9.172;2024-01-25T02:32:33;11.40;99.90
758;DHT22;363;48.764;9.172;2024-01-25T02:34:59;11.20;99.90
758;DHT22;363;48.764;9.172;2024-01-25T02:37:24;11.10;99.90
758;DHT22;363;48.764;9.172;2024-01-25T02:39:52;11.20;99.90
758;DHT22;363;48.764;9.172;2024-01-25T02:42:17;10.70;99.90
758;DHT22;363;48.764;9.172;2024-01-25T02:44:43;11.70;99.90
758;DHT22;363;48.764;9.172;2024-01-25T02:47:09;11.20;99.90
758;DHT22;363;48.764;9.172;2024-01-25T02:49:34;11.80;99.90
758;DHT22;363;48.764;9.172;2024-01-25T02:52:00;11.40;99.90
758;DHT22;363;48.764;9.172;2024-01-25T02:54:26;11.30;99.90
758;DHT22;363;48.764;9.172;2024-01-25T02:56:51;11.80;99.90
758;DHT22;363;48.764;9.172;2024-01-25T02:59:17;11.50;99.90
758;DHT22;363;48.764;9.172;2024-01-25T03:01:43;11.40;99.90
758;DHT22;363;48.764;9.172;2024-01-25T03:04:10;11.30;99.90
758;DHT22;363;48.764;9.172;2024-01-25T03:06:35;11.90;99.90
758;DHT22;363;48.764;9.172;2024-01-25T03:09:01;11.60;99.90
758;DHT22;363;48.764;9.172;2024-01-25T03:11:30;11.10;99.90
758;DHT22;363;48.764;9.172;2024-01-25T03:13:55;11.70;99.90
758;DHT22;363;48.764;9.172;2024-01-25T03:16:21;11.70;99.90
758;DHT22;363;48.764;9.172;2024-01-25T03:18:47;11.30;99.90
758;DHT22;363;48.764;9.172;2024-01-25T03:21:12;11.30;99.90
758;DHT22;363;48.764;9.172;2024-01-25T03:23:38;10.70;99.90
758;DHT22;363;48.764;9.172;2024-01-25T03:26:04;11.30;99.90
758;DHT22;363;48.764;9.172;2024-01-25T03:28:29;11.50;99.90
758;DHT22;363;48.764;9.172;2024-01-25T03:30:55;11.50;99.90
758;DHT22;363;48.764;9.172;2024-01-25T03:33:20;11.50;99.90
758;DHT22;363;48.764;9.172;2024-01-25T03:35:46;11.40;99.90
758;DHT22;363;48.764;9.172;2024-01-25T03:38:11;11.60;99.90
758;DHT22;363;48.764;9.172;2024-01-25T03:40:39;11.50;99.90
758;DHT22;363;48.764;9.172;2024-01-25T03:43:05;11.10;99.90
758;DHT22;363;48.764;9.172;2024-01-25T03:45:30;11.70;99.90
758;DHT22;363;48.764;9.172;2024-01-25T03:47:59;11.50;99.90
758;DHT22;363;48.764;9.172;2024-01-25T03:50:24;10.60;99.90
758;DHT22;363;48.764;9.172;2024-01-25T03:52:50;11.40;99.90
758;DHT22;363;48.764;9.172;2024-01-25T03:55:15;11.20;99.90
758;DHT22;363;48.764;9.172;2024-01-25T03:57:41;11.20;99.90
758;DHT22;363;48.764;9.172;2024-01-25T04:00:08;11.50;99.90
758;DHT22;363;48.764;9.172;2024-01-25T04:02:34;11.30;99.90
758;DHT22;363;48.764;9.172;2024-01-25T04:04:59;11.40;99.90
758;DHT22;363;48.764;9.172;2024-01-25T04:07:25;11.80;99.90
758;DHT22;363;48.764;9.172;2024-01-25T04:09:51;11.60;99.90
758;DHT22;363;48.764;9.172;2024-01-25T04:12:16;11.40;99.90
758;DHT22;363;48.764;9.172;2024-01-25T04:14:42;11.20;99.90
758;DHT22;363;48.764;9.172;2024-01-25T04:17:07;11.30;99.90
758;DHT22;363;48.764;9.172;2024-01-25T04:19:33;11.90;99.90
758;DHT22;363;48.764;9.172;2024-01-25T04:21:58;11.50;99.90
758;DHT22;363;48.764;9.172;2024-01-25T04:24:24;11.40;99.90
758;DHT22;363;48.764;9.172;2024-01-25T04:26:49;11.50;99.90
758;DHT22;363;48.764;9.172;2024-01-25T04:29:15;11.50;99.90
758;DHT22;363;48.764;9.172;2024-01-25T04:31:44;11.40;99.90
758;DHT22;363;48.764;9.172;2024-01-25T04:34:11;11.40;99.90
758;DHT22;363;48.764;9.172;2024-01-25T04:36:37;11.20;99.90
758;DHT22;363;48.764;9.172;2024-01-25T04:39:03;11.60;99.90
758;DHT22;363;48.764;9.172;2024-01-25T04:41:28;11.30;99.90
758;DHT22;363;48.764;9.172;2024-01-25T04:43:54;11.00;99.90
758;DHT22;363;48.764;9.172;2024-01-25T04:46:19;10.90;99.90
758;DHT22;363;48.764;9.172;2024-01-25T04:48:45;11.20;99.90
758;DHT22;363;48.764;9.172;2024-01-25T04:51:16;11.10;99.90
758;DHT22;363;48.764;9.172;2024-01-25T04:53:42;10.80;99.90
758;DHT22;363;48.764;9.172;2024-01-25T04:58:34;10.80;99.90
758;DHT22;363;48.764;9.172;2024-01-25T05:01:00;10.80;99.90
758;DHT22;363;48.764;9.172;2024-01-25T05:03:25;10.80;99.90
758;DHT22;363;48.764;9.172;2024-01-25T05:05:51;10.60;99.90
758;DHT22;363;48.764;9.172;2024-01-25T05:08:16;11.80;99.90
758;DHT22;363;48.764;9.172;2024-01-25T05:10:42;10.90;99.90
758;DHT22;363;48.764;9.172;2024-01-25T05:13:08;10.50;99.90
758;DHT22;363;48.764;9.172;2024-01-25T05:15:34;10.70;99.90
758;DHT22;363;48.764;9.172;2024-01-25T05:18:00;11.00;99.90
758;DHT22;363;48.764;9.172;2024-01-25T05:20:26;10.70;99.90
758;DHT22;363;48.764;9.172;2024-01-25T05:22:58;11.20;99.90
758;DHT22;363;48.764;9.172;2024-01-25T05:25:23;10.60;99.90
758;DHT22;363;48.764;9.172;2024-01-25T05:27:50;10.60;99.90
758;DHT22;363;48.764;9.172;2024-01-25T05:30:15;10.30;99.90
758;DHT22;363;48.764;9.172;2024-01-25T05:32:41;10.60;99.90
758;DHT22;363;48.764;9.172;2024-01-25T05:35:08;10.00;99.90
758;DHT22;363;48.764;9.172;2024-01-25T05:37:33;10.00;99.90
758;DHT22;363;48.764;9.172;2024-01-25T05:39:59;10.40;99.90
758;DHT22;363;48.764;9.172;2024-01-25T05:42:24;10.20;99.90
758;DHT22;363;48.764;9.172;2024-01-25T05:44:50;10.50;99.90
758;DHT22;363;48.764;9.172;2024-01-25T05:47:16;9.80;99.90
758;DHT22;363;48.764;9.172;2024-01-25T05:49:41;9.70;99.90
758;DHT22;363;48.764;9.172;2024-01-25T05:52:07;9.80;99.90
758;DHT22;363;48.764;9.172;2024-01-25T05:54:33;9.70;99.90
758;DHT22;363;48.764;9.172;2024-01-25T05:56:58;9.80;99.90
758;DHT22;363;48.764;9.172;2024-01-25T05:59:24;9.90;99.90
758;DHT22;363;48.764;9.172;2024-01-25T06:01:49;9.70;99.90
758;DHT22;363;48.764;9.172;2024-01-25T06:04:15;9.60;99.90
758;DHT22;363;48.764;9.172;2024-01-25T06:06:40;9.90;99.90
758;DHT22;363;48.764;9.172;2024-01-25T06:09:07;9.50;99.90
758;DHT22;363;48.764;9.172;2024-01-25T06:11:32;9.20;99.90
758;DHT22;363;48.764;9.172;2024-01-25T06:14:01;9.20;99.90
758;DHT22;363;48.764;9.172;2024-01-25T06:16:27;9.70;99.90
758;DHT22;363;48.764;9.172;2024-01-25T06:18:52;9.50;99.90
758;DHT22;363;48.764;9.172;2024-01-25T06:21:18;9.40;99.90
758;DHT22;363;48.764;9.172;2024-01-25T06:23:43;9.30;99.90
758;DHT22;363;48.764;9.172;2024-01-25T06:26:09;9.40;99.90
758;DHT22;363;48.764;9.172;2024-01-25T06:28:34;9.70;99.90
758;DHT22;363;48.764;9.172;2024-01-25T06:31:03;8.80;99.90
758;DHT22;363;48.764;9.172;2024-01-25T06:33:29;9.30;99.90
758;DHT22;363;48.764;9.172;2024-01-25T06:35:55;9.00;99.90
758;DHT22;363;48.764;9.172;2024-01-25T06:38:21;9.10;99.90
758;DHT22;363;48.764;9.172;2024-01-25T06:40:46;9.30;99.90
758;DHT22;363;48.764;9.172;2024-01-25T06:43:12;9.50;99.90
758;DHT22;363;48.764;9.172;2024-01-25T06:45:38;9.00;99.90
758;DHT22;363;48.764;9.172;2024-01-25T06:48:06;9.60;99.90
758;DHT22;363;48.764;9.172;2024-01-25T06:50:32;9.00;99.90
758;DHT22;363;48.764;9.172;2024-01-25T06:52:57;8.90;99.90
758;DHT22;363;48.764;9.172;2024-01-25T06:55:23;9.00;99.90
758;DHT22;363;48.764;9.172;2024-01-25T06:57:49;8.90;99.90
758;DHT22;363;48.764;9.172;2024-01-25T07:00:15;9.10;99.90
758;DHT22;363;48.764;9.172;2024-01-25T07:02:41;9.00;99.90
758;DHT22;363;48.764;9.172;2024-01-25T07:05:08;8.50;99.90
758;DHT22;363;48.764;9.172;2024-01-25T07:07:34;9.00;99.90
758;DHT22;363;48.764;9.172;2024-01-25T07:09:59;9.50;99.90
758;DHT22;363;48.764;9.172;2024-01-25T07:12:25;9.00;99.90
758;DHT22;363;48.764;9.172;2024-01-25T07:14:50;9.30;99.90
758;DHT22;363;48.764;9.172;2024-01-25T07:17:16;8.90;99.90
758;DHT22;363;48.764;9.172;2024-01-25T07:19:41;8.80;99.90
758;DHT22;363;48.764;9.172;2024-01-25T07:22:07;9.10;99.90
758;DHT22;363;48.764;9.172;2024-01-25T07:24:33;8.90;99.90
758;DHT22;363;48.764;9.172;2024-01-25T07:26:58;9.10;99.90
758;DHT22;363;48.764;9.172;2024-01-25T07:29:24;9.10;99.90
758;DHT22;363;48.764;9.172;2024-01-25T07:31:50;9.10;99.90
758;DHT22;363;48.764;9.172;2024-01-25T07:34:15;9.00;99.90
758;DHT22;363;48.764;9.172;2024-01-25T07:36:41;9.50;99.90
758;DHT22;363;48.764;9.172;2024-01-25T07:39:06;9.20;99.90
758;DHT22;363;48.764;9.172;2024-01-25T07:41:33;8.90;99.90
758;DHT22;363;48.764;9.172;2024-01-25T07:43:59;9.40;99.90
758;DHT22;363;48.764;9.172;2024-01-25T07:46:24;9.00;99.90
758;DHT22;363;48.764;9.172;2024-01-25T07:48:50;8.90;99.90
758;DHT22;363;48.764;9.172;2024-01-25T07:51:16;9.50;99.90
758;DHT22;363;48.764;9.172;2024-01-25T07:53:41;9.20;99.90
758;DHT22;363;48.764;9.172;2024-01-25T07:56:07;9.00;99.90
758;DHT22;363;48.764;9.172;2024-01-25T07:58:35;9.30;99.90
758;DHT22;363;48.764;9.172;2024-01-25T08:01:03;9.00;99.90
758;DHT22;363;48.764;9.172;2024-01-25T08:03:29;9.60;99.90
758;DHT22;363;48.764;9.172;2024-01-25T08:05:54;9.30;99.90
758;DHT22;363;48.764;9.172;2024-01-25T08:08:20;9.40;99.90
758;DHT22;363;48.764;9.172;2024-01-25T08:10:45;9.70;99.90
758;DHT22;363;48.764;9.172;2024-01-25T08:13:12;8.90;99.90
758;DHT22;363;48.764;9.172;2024-01-25T08:15:38;9.30;99.90
758;DHT22;363;48.764;9.172;2024-01-25T08:18:03;9.40;99.90
758;DHT22;363;48.764;9.172;2024-01-25T08:20:29;9.40;99.90
758;DHT22;363;48.764;9.172;2024-01-25T08:22:54;10.10;99.90
758;DHT22;363;48.764;9.172;2024-01-25T08:25:20;9.50;99.90
758;DHT22;363;48.764;9.172;2024-01-25T08:27:46;9.40;99.90
758;DHT22;363;48.764;9.172;2024-01-25T08:30:11;9.50;99.90
758;DHT22;363;48.764;9.172;2024-01-25T08:32:37;9.60;99.90
758;DHT22;363;48.764;9.172;2024-01-25T08:35:05;9.80;99.90
758;DHT22;363;48.764;9.172;2024-01-25T08:37:31;9.70;99.90
758;DHT22;363;48.764;9.172;2024-01-25T08:39:58;10.20;99.90
758;DHT22;363;48.764;9.172;2024-01-25T08:42:23;10.40;99.90
758;DHT22;363;48.764;9.172;2024-01-25T08:44:50;10.40;99.90
758;DHT22;363;48.764;9.172;2024-01-25T08:47:17;10.00;99.90
758;DHT22;363;48.764;9.172;2024-01-25T08:49:43;9.90;99.90
758;DHT22;363;48.764;9.172;2024-01-25T08:52:08;9.80;99.90
758;DHT22;363;48.764;9.172;2024-01-25T08:54:34;10.50;99.90
758;DHT22;363;48.764;9.172;2024-01-25T08:57:02;10.60;99.90
758;DHT22;363;48.764;9.172;2024-01-25T08:59:28;10.10;99.90
758;DHT22;363;48.764;9.172;2024-01-25T09:01:55;11.80;99.90
758;DHT22;363;48.764;9.172;2024-01-25T09:04:20;10.50;99.90
758;DHT22;363;48.764;9.172;2024-01-25T09:06:46;10.30;99.90
758;DHT22;363;48.764;9.172;2024-01-25T09:09:11;10.60;99.90
758;DHT22;363;48.764;9.172;2024-01-25T09:11:37;10.10;99.90
758;DHT22;363;48.764;9.172;2024-01-25T09:14:03;10.50;99.90
758;DHT22;363;48.764;9.172;2024-01-25T09:16:28;10.70;99.90
758;DHT22;363;48.764;9.172;2024-01-25T09:18:54;10.30;99.90
758;DHT22;363;48.764;9.172;2024-01-25T09:21:19;11.10;99.90
758;DHT22;363;48.764;9.172;2024-01-25T09:23:45;11.00;99.90
758;DHT22;363;48.764;9.172;2024-01-25T09:26:10;12.20;99.90
758;DHT22;363;48.764;9.172;2024-01-25T09:28:36;12.20;99.90
758;DHT22;363;48.764;9.172;2024-01-25T09:31:01;13.40;99.90
758;DHT22;363;48.764;9.172;2024-01-25T09:33:28;13.80;96.80
758;DHT22;363;48.764;9.172;2024-01-25T09:35:56;14.30;96.00
758;DHT22;363;48.764;9.172;2024-01-25T09:38:22;13.90;95.70
758;DHT22;363;48.764;9.172;2024-01-25T09:40:49;13.60;95.60
758;DHT22;363;48.764;9.172;2024-01-25T09:43:18;13.50;95.30
758;DHT22;363;48.764;9.172;2024-01-25T09:45:46;13.60;95.40
758;DHT22;363;48.764;9.172;2024-01-25T09:48:13;13.00;95.20
758;DHT22;363;48.764;9.172;2024-01-25T09:50:38;13.90;94.90
758;DHT22;363;48.764;9.172;2024-01-25T09:53:05;14.60;95.80
758;DHT22;363;48.764;9.172;2024-01-25T09:55:35;14.20;94.40
758;DHT22;363;48.764;9.172;2024-01-25T09:58:05;13.20;93.60
758;DHT22;363;48.764;9.172;2024-01-25T10:00:33;13.20;94.90
758;DHT22;363;48.764;9.172;2024-01-25T10:02:58;13.60;95.10
758;DHT22;363;48.764;9.172;2024-01-25T10:05:24;13.30;95.10
758;DHT22;363;48.764;9.172;2024-01-25T10:07:49;13.40;95.20
758;DHT22;363;48.764;9.172;2024-01-25T10:10:15;13.90;95.60
758;DHT22;363;48.764;9.172;2024-01-25T10:12:42;13.60;95.80
758;DHT22;363;48.764;9.172;2024-01-25T10:15:09;13.30;95.50
758;DHT22;363;48.764;9.172;2024-01-25T10:17:34;13.20;95.60
758;DHT22;363;48.764;9.172;2024-01-25T10:20:00;13.70;95.60
758;DHT22;363;48.764;9.172;2024-01-25T10:22:26;12.50;95.80
758;DHT22;363;48.764;9.172;2024-01-25T10:24:52;13.10;96.70
758;DHT22;363;48.764;9.172;2024-01-25T10:27:21;13.10;95.70
758;DHT22;363;48.764;9.172;2024-01-25T10:29:49;13.10;95.40
758;DHT22;363;48.764;9.172;2024-01-25T10:32:15;13.80;95.60
758;DHT22;363;48.764;9.172;2024-01-25T10:34:41;13.50;94.90
758;DHT22;363;48.764;9.172;2024-01-25T10:37:08;14.10;95.00
758;DHT22;363;48.764;9.172;2024-01-25T10:39:33;13.50;94.50
758;DHT22;363;48.764;9.172;2024-01-25T10:42:00;14.40;94.00
758;DHT22;363;48.764;9.172;2024-01-25T10:44:26;14.90;93.80
758;DHT22;363;48.764;9.172;2024-01-25T10:46:51;16.40;91.70
758;DHT22;363;48.764;9.172;2024-01-25T10:49:19;16.80;90.20
758;DHT22;363;48.764;9.172;2024-01-25T10:51:45;16.80;89.10
758;DHT22;363;48.764;9.172;2024-01-25T10:59:22;19.10;80.60
758;DHT22;363;48.764;9.172;2024-01-25T11:01:50;18.20;79.20
758;DHT22;363;48.764;9.172;2024-01-25T11:04:18;19.40;78.60
758;DHT22;363;48.764;9.172;2024-01-25T11:06:47;18.80;77.60
758;DHT22;363;48.764;9.172;2024-01-25T11:09:20;20.10;76.30
758;DHT22;363;48.764;9.172;2024-01-25T11:11:48;19.60;74.70
758;DHT22;363;48.764;9.172;2024-01-25T11:14:15;20.10;75.10
758;DHT22;363;48.764;9.172;2024-01-25T11:16:43;20.00;76.00
758;DHT22;363;48.764;9.172;2024-01-25T11:19:20;19.40;74.70
758;DHT22;363;48.764;9.172;2024-01-25T11:21:50;19.00;76.40
758;DHT22;363;48.764;9.172;2024-01-25T11:24:24;18.20;74.80
758;DHT22;363;48.764;9.172;2024-01-25T11:26:53;17.90;77.10
758;DHT22;363;48.764;9.172;2024-01-25T11:29:20;17.60;79.80
758;DHT22;363;48.764;9.172;2024-01-25T11:31:49;18.30;81.80
758;DHT22;363;48.764;9.172;2024-01-25T11:34:15;16.80;78.50
758;DHT22;363;48.764;9.172;2024-01-25T11:36:42;16.80;79.00
758;DHT22;363;48.764;9.172;2024-01-25T11:39:12;16.70;79.70
758;DHT22;363;48.764;9.172;2024-01-25T11:41:38;17.40;77.40
758;DHT22;363;48.764;9.172;2024-01-25T11:44:04;18.20;77.60
758;DHT22;363;48.764;9.172;2024-01-25T11:46:30;18.60;77.00
758;DHT22;363;48.764;9.172;2024-01-25T11:48:57;18.40;75.30
758;DHT22;363;48.764;9.172;2024-01-25T11:51:23;18.90;73.90
758;DHT22;363;48.764;9.172;2024-01-25T11:53:48;19.00;72.60
758;DHT22;363;48.764;9.172;2024-01-25T11:56:25;18.50;72.50
758;DHT22;363;48.764;9.172;2024-01-25T11:58:51;17.90;74.10
758;DHT22;363;48.764;9.172;2024-01-25T12:01:18;18.10;74.30
758;DHT22;363;48.764;9.172;2024-01-25T12:03:45;18.50;74.10
758;DHT22;363;48.764;9.172;2024-01-25T12:06:10;18.20;74.20
758;DHT22;363;48.764;9.172;2024-01-25T12:08:37;17.40;73.90
758;DHT22;363;48.764;9.172;2024-01-25T12:11:08;18.50;77.40
758;DHT22;363;48.764;9.172;2024-01-25T12:13:43;16.80;78.20
758;DHT22;363;48.764;9.172;2024-01-25T12:16:09;16.60;77.40
758;DHT22;363;48.764;9.172;2024-01-25T12:18:35;16.90;78.70
758;DHT22;363;48.764;9.172;2024-01-25T12:21:05;16.90;78.80
758;DHT22;363;48.764;9.172;2024-01-25T12:23:34;16.40;77.70
758;DHT22;363;48.764;9.172;2024-01-25T12:26:09;16.00;78.10
758;DHT22;363;48.764;9.172;2024-01-25T12:28:35;16.30;80.20
758;DHT22;363;48.764;9.172;2024-01-25T12:31:01;16.30;79.70
758;DHT22;363;48.764;9.172;2024-01-25T12:33:29;16.10;82.60
758;DHT22;363;48.764;9.172;2024-01-25T12:35:54;16.30;84.70
758;DHT22;363;48.764;9.172;2024-01-25T12:38:21;15.80;85.30
758;DHT22;363;48.764;9.172;2024-01-25T12:40:48;15.70;86.10
758;DHT22;363;48.764;9.172;2024-01-25T12:43:15;16.20;86.30
758;DHT22;363;48.764;9.172;2024-01-25T12:45:41;15.70;85.80
758;DHT22;363;48.764;9.172;2024-01-25T12:48:07;15.70;86.20
758;DHT22;363;48.764;9.172;2024-01-25T12:50:34;15.90;86.10
758;DHT22;363;48.764;9.172;2024-01-25T12:53:01;15.60;86.10
758;DHT22;363;48.764;9.172;2024-01-25T12:55:28;15.40;87.30
758;DHT22;363;48.764;9.172;2024-01-25T12:57:54;15.30;87.00
758;DHT22;363;48.764;9.172;2024-01-25T13:00:19;15.20;87.10
758;DHT22;363;48.764;9.172;2024-01-25T13:02:45;15.00;86.70
758;DHT22;363;48.764;9.172;2024-01-25T13:05:10;14.80;88.70
758;DHT22;363;48.764;9.172;2024-01-25T13:07:36;14.60;88.20
758;DHT22;363;48.764;9.172;2024-01-25T13:10:02;14.70;88.50
758;DHT22;363;48.764;9.172;2024-01-25T13:12:27;14.40;89.80
758;DHT22;363;48.764;9.172;2024-01-25T13:14:53;15.20;90.10
758;DHT22;363;48.764;9.172;2024-01-25T13:17:18;15.20;90.10
758;DHT22;363;48.764;9.172;2024-01-25T13:19:46;14.50;90.20
758;DHT22;363;48.764;9.172;2024-01-25T13:22:13;14.30;90.40
758;DHT22;363;48.764;9.172;2024-01-25T13:24:38;14.10;90.30
758;DHT22;363;48.764;9.172;2024-01-25T13:27:05;13.80;90.20
758;DHT22;363;48.764;9.172;2024-01-25T13:29:31;13.90;91.20
758;DHT22;363;48.764;9.172;2024-01-25T13:31:57;14.00;90.80
758;DHT22;363;48.764;9.172;2024-01-25T13:34:22;13.70;90.80
758;DHT22;363;48.764;9.172;2024-01-25T13:36:48;14.20;91.10
758;DHT22;363;48.764;9.172;2024-01-25T13:39:13;13.70;91.20
758;DHT22;363;48.764;9.172;2024-01-25T13:41:39;13.30;91.60
758;DHT22;363;48.764;9.172;2024-01-25T13:44:04;13.30;92.10
758;DHT22;363;48.764;9.172;2024-01-25T13:46:30;13.60;92.60
758;DHT22;363;48.764;9.172;2024-01-25T13:48:56;13.60;93.20
758;DHT22;363;48.764;9.172;2024-01-25T13:51:21;13.50;92.50
758;DHT22;363;48.764;9.172;2024-01-25T13:53:47;13.70;93.20
758;DHT22;363;48.764;9.172;2024-01-25T13:56:14;13.90;92.90
758;DHT22;363;48.764;9.172;2024-01-25T14:01:06;13.40;92.80
758;DHT22;363;48.764;9.172;2024-01-25T14:03:31;13.50;93.00
758;DHT22;363;48.764;9.172;2024-01-25T14:05:57;13.70;92.80
758;DHT22;363;48.764;9.172;2024-01-25T14:08:23;13.30;92.90
758;DHT22;363;48.764;9.172;2024-01-25T14:10:50;13.80;93.30
758;DHT22;363;48.764;9.172;2024-01-25T14:13:15;13.00;93.60
758;DHT22;363;48.764;9.172;2024-01-25T14:15:41;13.20;94.60
758;DHT22;363;48.764;9.172;2024-01-25T14:18:06;13.00;94.70
758;DHT22;363;48.764;9.172;2024-01-25T14:20:32;12.90;95.00
758;DHT22;363;48.764;9.172;2024-01-25T14:22:58;13.20;95.20
758;DHT22;363;48.764;9.172;2024-01-25T14:25:23;13.60;95.30
758;DHT22;363;48.764;9.172;2024-01-25T14:27:49;13.30;95.10
758;DHT22;363;48.764;9.172;2024-01-25T14:30:14;13.00;94.90
758;DHT22;363;48.764;9.172;2024-01-25T14:32:41;13.30;95.20
758;DHT22;363;48.764;9.172;2024-01-25T14:35:07;13.20;95.30
758;DHT22;363;48.764;9.172;2024-01-25T14:37:33;13.20;95.40
758;DHT22;363;48.764;9.172;2024-01-25T14:39:58;13.40;95.50
758;DHT22;363;48.764;9.172;2024-01-25T14:42:24;13.10;95.60
758;DHT22;363;48.764;9.172;2024-01-25T14:44:51;12.70;95.20
758;DHT22;363;48.764;9.172;2024-01-25T14:47:16;12.80;95.40
758;DHT22;363;48.764;9.172;2024-01-25T14:49:47;12.70;95.60
758;DHT22;363;48.764;9.172;2024-01-25T14:52:13;12.10;95.60
758;DHT22;363;48.764;9.172;2024-01-25T14:54:38;12.90;96.00
758;DHT22;363;48.764;9.172;2024-01-25T14:57:04;12.80;95.80
758;DHT22;363;48.764;9.172;2024-01-25T14:59:29;13.40;96.10
758;DHT22;363;48.764;9.172;2024-01-25T15:01:55;12.70;96.10
758;DHT22;363;48.764;9.172;2024-01-25T15:04:20;13.00;95.70
758;DHT22;363;48.764;9.172;2024-01-25T15:06:46;12.90;95.60
758;DHT22;363;48.764;9.172;2024-01-25T15:09:12;12.90;95.60
758;DHT22;363;48.764;9.172;2024-01-25T15:11:37;12.90;95.80
758;DHT22;363;48.764;9.172;2024-01-25T15:14:03;13.40;95.80
758;DHT22;363;48.764;9.172;2024-01-25T15:16:29;13.30;95.80
758;DHT22;363;48.764;9.172;2024-01-25T15:18:57;13.20;95.70
758;DHT22;363;48.764;9.172;2024-01-25T15:21:23;12.80;95.50
758;DHT22;363;48.764;9.172;2024-01-25T15:23:50;12.80;95.60
758;DHT22;363;48.764;9.172;2024-01-25T15:26:15;13.70;96.10
758;DHT22;363;48.764;9.172;2024-01-25T15:28:41;13.40;96.20
758;DHT22;363;48.764;9.172;2024-01-25T15:31:06;13.00;95.80
758;DHT22;363;48.764;9.172;2024-01-25T15:33:33;13.30;95.90
758;DHT22;363;48.764;9.172;2024-01-25T15:35:58;13.30;95.90
758;DHT22;363;48.764;9.172;2024-01-25T15:38:24;13.00;96.20
758;DHT22;363;48.764;9.172;2024-01-25T15:40:50;13.00;96.40
758;DHT22;363;48.764;9.172;2024-01-25T15:43:16;13.10;96.30
758;DHT22;363;48.764;9.172;2024-01-25T15:45:41;13.00;96.30
758;DHT22;363;48.764;9.172;2024-01-25T15:48:07;12.80;96.40
758;DHT22;363;48.764;9.172;2024-01-25T15:50:33;13.00;96.90
758;DHT22;363;48.764;9.172;2024-01-25T15:52:59;12.70;96.80
758;DHT22;363;48.764;9.172;2024-01-25T15:55:25;13.00;96.80
758;DHT22;363;48.764;9.172;2024-01-25T15:57:50;13.10;96.60
758;DHT22;363;48.764;9.172;2024-01-25T16:00:17;13.10;96.60
758;DHT22;363;48.764;9.172;2024-01-25T16:02:45;12.60;96.70
758;DHT22;363;48.764;9.172;2024-01-25T16:05:10;13.10;97.00
758;DHT22;363;48.764;9.172;2024-01-25T16:07:37;13.00;96.80
758;DHT22;363;48.764;9.172;2024-01-25T16:10:02;12.70;96.80
758;DHT22;363;48.764;9.172;2024-01-25T16:12:30;12.40;96.50
758;DHT22;363;48.764;9.172;2024-01-25T16:14:55;12.70;96.90
758;DHT22;363;48.764;9.172;2024-01-25T16:17:23;12.70;96.50
758;DHT22;363;48.764;9.172;2024-01-25T16:19:48;12.40;96.10
758;DHT22;363;48.764;9.172;2024-01-25T16:22:14;12.70;96.40
758;DHT22;363;48.764;9.172;2024-01-25T16:24:40;12.60;96.80
758;DHT22;363;48.764;9.172;2024-01-25T16:27:06;12.40;97.20
758;DHT22;363;48.764;9.172;2024-01-25T16:29:31;12.50;97.40
758;DHT22;363;48.764;9.172;2024-01-25T16:31:57;12.40;97.40
758;DHT22;363;48.764;9.172;2024-01-25T16:34:23;12.10;96.70
758;DHT22;363;48.764;9.172;2024-01-25T16:36:48;12.40;97.20
758;DHT22;363;48.764;9.172;2024-01-25T16:39:14;12.50;97.20